Time;durP1;ratioP1;P1;durP2;ratioP2;P2;SDS_P1;SDS_P2;PMS_P1;PMS_P2;Temp;Humidity;BMP_temperature;BMP_pressure;BME280_temperature;BME280_humidity;BME280_pressure;Samples;Min_cycle;Max_cycle;Signal;HPM_P1;HPM_P2
2022/11/10 06:04:34;;;;;;;26.75;10.40;;;;;;;9.70;100.00;101841.94;5048115;28;20175;-76
2022/11/10 06:06:59;;;;;;;31.67;12.05;;;;;;;9.65;100.00;101839.34;5022390;28;20030;-75
2022/11/10 06:09:25;;;;;;;24.00;12.02;;;;;;;9.76;100.00;101858.13;5057348;28;20134;-75
2022/11/10 06:11:50;;;;;;;22.80;11.43;;;;;;;9.73;100.00;101856.00;5089080;22;20082;-76
2022/11/10 06:14:15;;;;;;;24.02;12.25;;;;;;;9.62;100.00;101862.41;5040240;28;20028;-75
2022/11/10 06:16:41;;;;;;;23.20;12.23;;;;;;;9.74;100.00;101870.81;5045249;28;20016;-75
2022/11/10 06:19:06;;;;;;;24.13;11.98;;;;;;;9.62;100.00;101865.22;5043691;28;20063;-75
2022/11/10 06:21:31;;;;;;;26.02;11.00;;;;;;;9.72;100.00;101867.56;5048635;28;20419;-75
2022/11/10 06:23:57;;;;;;;23.48;11.38;;;;;;;9.60;100.00;101870.34;5028255;28;20123;-76
2022/11/10 06:26:22;;;;;;;30.67;12.02;;;;;;;9.64;100.00;101874.88;5030797;28;20032;-75
2022/11/10 06:28:47;;;;;;;30.15;12.05;;;;;;;9.60;100.00;101876.72;5040339;28;20376;-76
2022/11/10 06:31:12;;;;;;;23.38;12.35;;;;;;;9.57;100.00;101889.44;5043224;28;20474;-75
2022/11/10 06:33:39;;;;;;;30.85;13.18;;;;;;;9.47;100.00;101884.28;5036284;28;20021;-75
2022/11/10 06:36:04;;;;;;;26.65;11.93;;;;;;;9.54;100.00;101889.28;5051901;28;20029;-76
2022/11/10 06:38:29;;;;;;;32.55;12.45;;;;;;;9.51;100.00;101893.59;5036587;28;20478;-76
2022/11/10 06:40:55;;;;;;;25.20;11.95;;;;;;;9.68;100.00;101900.16;5048610;28;20033;-78
2022/11/10 06:43:20;;;;;;;24.08;11.63;;;;;;;9.75;100.00;101895.63;5048954;28;20032;-75
2022/11/10 06:45:45;;;;;;;31.73;12.40;;;;;;;9.79;100.00;101901.34;5052615;28;20055;-76
2022/11/10 06:48:15;;;;;;;23.25;12.05;;;;;;;9.83;100.00;101902.28;5032662;28;20082;-76
2022/11/10 06:50:41;;;;;;;22.27;12.90;;;;;;;9.59;100.00;101907.81;5048099;28;20550;-77
2022/11/10 06:53:06;;;;;;;23.60;12.50;;;;;;;9.61;100.00;101911.09;5038431;28;20031;-76
2022/11/10 06:55:31;;;;;;;30.58;13.02;;;;;;;9.65;100.00;101918.44;5033752;28;20712;-76
2022/11/10 06:57:57;;;;;;;27.67;13.18;;;;;;;9.66;100.00;101925.66;5045678;28;20040;-76
2022/11/10 07:00:24;;;;;;;28.25;12.95;;;;;;;9.55;100.00;101930.06;5024426;28;20047;-76
2022/11/10 07:03:05;;;;;;;20.02;12.05;;;;;;;9.57;100.00;101934.16;5026369;28;20496;-76
2022/11/10 07:05:32;;;;;;;34.78;14.88;;;;;;;9.48;100.00;101946.56;5015914;28;20652;-76
2022/11/10 07:08:07;;;;;;;27.90;13.30;;;;;;;9.68;100.00;101956.88;5022569;28;20133;-76
2022/11/10 07:10:33;;;;;;;24.17;10.02;;;;;;;10.36;100.00;101958.41;5030899;28;20486;-76
2022/11/10 07:13:00;;;;;;;32.25;13.13;;;;;;;9.90;100.00;101952.84;5030867;28;20110;-76
2022/11/10 07:15:25;;;;;;;27.02;12.30;;;;;;;9.74;100.00;101943.53;5025876;28;20040;-75
2022/11/10 07:17:51;;;;;;;41.40;12.10;;;;;;;9.70;100.00;101953.75;5013946;28;20115;-76
2022/11/10 07:20:16;;;;;;;36.72;14.23;;;;;;;9.64;100.00;101949.53;5017293;28;20052;-79
2022/11/10 07:22:42;;;;;;;29.02;13.15;;;;;;;9.70;100.00;101953.75;5032197;28;20029;-77
2022/11/10 07:25:08;;;;;;;24.40;11.93;;;;;;;9.68;100.00;101956.88;5027820;28;20036;-77
2022/11/10 07:27:33;;;;;;;30.95;12.75;;;;;;;9.74;100.00;101960.28;5030009;28;20078;-76
2022/11/10 07:29:58;;;;;;;26.10;10.98;;;;;;;9.66;100.00;101964.00;5028892;28;20018;-77
2022/11/10 07:32:24;;;;;;;34.30;11.18;;;;;;;9.82;100.00;101958.53;5039062;28;20576;-77
2022/11/10 07:34:49;;;;;;;23.23;10.48;;;;;;;9.82;100.00;101953.75;5017658;28;20017;-77
2022/11/10 07:37:14;;;;;;;31.63;11.90;;;;;;;9.79;100.00;101948.88;5030668;28;20368;-77
2022/11/10 07:39:40;;;;;;;27.52;11.05;;;;;;;9.71;100.00;101952.59;5035048;28;20112;-77
2022/11/10 07:42:05;;;;;;;30.40;9.43;;;;;;;9.69;100.00;101947.31;5033724;28;20115;-77
2022/11/10 07:44:30;;;;;;;32.13;10.38;;;;;;;9.69;100.00;101954.91;5027779;28;20413;-76
2022/11/10 07:46:56;;;;;;;18.38;9.43;;;;;;;9.70;100.00;101959.34;5033279;28;20104;-76
2022/11/10 07:49:22;;;;;;;23.95;10.63;;;;;;;9.74;100.00;101951.91;5015445;28;20526;-77
2022/11/10 07:51:47;;;;;;;25.60;9.55;;;;;;;9.80;100.00;101964.47;5012440;28;20036;-77
2022/11/10 07:54:12;;;;;;;19.25;9.25;;;;;;;9.80;100.00;101963.66;5031293;28;20154;-77
2022/11/10 07:56:38;;;;;;;23.30;9.52;;;;;;;9.81;100.00;101977.31;5037976;28;20498;-77
2022/11/10 07:59:03;;;;;;;25.83;8.48;;;;;;;9.87;100.00;101975.94;5018783;28;20120;-78
2022/11/10 08:01:28;;;;;;;23.42;8.48;;;;;;;9.94;100.00;101981.75;5032583;28;20109;-78
2022/11/10 08:03:54;;;;;;;26.58;8.70;;;;;;;9.96;100.00;101995.41;5031218;28;20734;-77
2022/11/10 08:06:19;;;;;;;24.30;9.43;;;;;;;9.93;100.00;101998.91;5029419;28;20043;-76
2022/11/10 08:08:46;;;;;;;24.65;9.88;;;;;;;9.93;100.00;102004.50;5026864;28;20087;-77
2022/11/10 08:11:11;;;;;;;21.05;8.80;;;;;;;10.02;100.00;102008.00;5030780;28;20025;-77
2022/11/10 08:13:38;;;;;;;17.95;8.52;;;;;;;10.02;100.00;102004.41;5031538;28;20467;-77
2022/11/10 08:16:04;;;;;;;24.70;9.55;;;;;;;10.01;100.00;102003.56;5016916;28;20072;-77
2022/11/10 08:18:29;;;;;;;29.88;9.50;;;;;;;10.05;100.00;102001.69;5016657;28;20032;-77
2022/11/10 08:20:54;;;;;;;20.10;9.27;;;;;;;10.09;100.00;101993.44;5035042;28;20028;-77
2022/11/10 08:23:20;;;;;;;28.02;9.43;;;;;;;10.16;100.00;101999.25;5032841;28;20495;-77
2022/11/10 08:25:46;;;;;;;20.88;8.15;;;;;;;10.19;100.00;102001.38;5021720;28;20048;-76
2022/11/10 08:28:15;;;;;;;28.40;8.32;;;;;;;10.26;100.00;102009.19;5042328;28;20387;-77
2022/11/10 08:30:43;;;;;;;30.20;9.40;;;;;;;10.26;100.00;102010.00;5033790;28;28589;-77
2022/11/10 08:33:10;;;;;;;22.95;8.60;;;;;;;10.35;100.00;102023.91;5016537;28;20086;-76
2022/11/10 08:35:38;;;;;;;19.67;7.63;;;;;;;10.43;100.00;102027.78;5038358;28;20041;-78
2022/11/10 08:38:06;;;;;;;21.92;7.28;;;;;;;10.51;100.00;102021.25;5024800;28;20047;-77
2022/11/10 08:40:31;;;;;;;25.90;7.70;;;;;;;10.54;100.00;102028.94;5045537;28;20476;-78
2022/11/10 08:42:58;;;;;;;22.20;7.57;;;;;;;10.55;100.00;102017.41;5032678;28;20029;-76
2022/11/10 08:45:24;;;;;;;36.13;9.48;;;;;;;10.57;100.00;102019.88;5042710;28;20033;-78
2022/11/10 08:47:57;;;;;;;31.23;10.70;;;;;;;10.62;100.00;102028.00;5032356;28;20434;-77
2022/11/10 08:50:22;;;;;;;22.63;10.60;;;;;;;10.62;100.00;102035.59;5032768;28;20047;-76
2022/11/10 08:52:47;;;;;;;30.48;9.35;;;;;;;10.63;100.00;102034.44;5033676;28;20025;-77
2022/11/10 08:55:13;;;;;;;28.55;8.23;;;;;;;10.67;100.00;102047.41;5041387;28;20035;-77
2022/11/10 08:57:38;;;;;;;32.70;8.30;;;;;;;10.71;100.00;102042.72;5034686;28;20373;-76
2022/11/10 09:00:04;;;;;;;16.27;5.70;;;;;;;10.74;100.00;102047.63;5038851;28;20123;-76
2022/11/10 09:02:30;;;;;;;17.00;6.47;;;;;;;10.75;100.00;102059.63;5034420;28;20036;-76
2022/11/10 09:04:56;;;;;;;17.88;5.53;;;;;;;10.75;100.00;102049.28;5037901;28;20040;-75
2022/11/10 09:07:21;;;;;;;12.20;4.30;;;;;;;10.83;100.00;102063.50;5037007;28;20098;-75
2022/11/10 09:09:46;;;;;;;21.52;6.40;;;;;;;10.87;100.00;102068.03;5036396;28;20120;-77
2022/11/10 09:12:12;;;;;;;22.17;5.78;;;;;;;10.90;100.00;102063.72;5042026;28;20048;-76
2022/11/10 09:14:37;;;;;;;14.82;4.95;;;;;;;10.96;100.00;102076.31;5036638;28;20036;-76
2022/11/10 09:17:02;;;;;;;26.17;6.57;;;;;;;11.04;100.00;102066.97;5042380;28;20021;-76
2022/11/10 09:19:28;;;;;;;25.52;6.55;;;;;;;11.07;100.00;102066.28;5019678;28;20025;-76
2022/11/10 09:21:53;;;;;;;24.13;6.38;;;;;;;11.10;100.00;102071.16;5036908;28;20042;-76
2022/11/10 09:24:18;;;;;;;30.73;6.68;;;;;;;11.18;100.00;102073.03;5043293;28;20070;-76
2022/11/10 09:26:46;;;;;;;21.75;7.03;;;;;;;11.24;100.00;102070.00;5034973;28;20384;-76
2022/11/10 09:29:11;;;;;;;26.73;8.05;;;;;;;11.23;100.00;102079.56;5040102;28;20025;-77
2022/11/10 09:31:37;;;;;;;20.13;5.78;;;;;;;11.28;100.00;102082.94;5039940;28;20082;-76
2022/11/10 09:34:03;;;;;;;25.45;7.28;;;;;;;11.30;100.00;102086.22;5022502;28;20032;-77
2022/11/10 09:36:29;;;;;;;28.70;7.38;;;;;;;11.36;100.00;102086.75;5041142;28;20377;-76
2022/11/10 09:38:54;;;;;;;18.80;4.97;;;;;;;11.34;100.00;102089.94;5036589;28;20033;-75
2022/11/10 09:41:19;;;;;;;28.02;5.82;;;;;;;11.37;100.00;102092.03;5013869;28;20028;-75
2022/11/10 09:44:04;;;;;;;22.88;5.63;;;;;;;11.36;100.00;102095.16;5035795;28;20033;-76
2022/11/10 09:46:44;;;;;;;14.82;5.00;;;;;;;11.41;100.00;102092.13;5039643;28;20056;-75
2022/11/10 09:49:24;;;;;;;24.90;5.40;;;;;;;11.37;100.00;102106.03;5035407;28;20027;-75
2022/11/10 09:51:52;;;;;;;17.50;6.55;;;;;;;11.46;100.00;102111.50;5038304;28;20021;-75
2022/11/10 09:54:32;;;;;;;15.98;4.90;;;;;;;11.46;100.00;102111.50;5035654;28;20043;-76
2022/11/10 09:57:01;;;;;;;14.48;5.70;;;;;;;11.56;100.00;102127.84;5039410;28;20107;-75
2022/11/10 09:59:31;;;;;;;15.13;6.25;;;;;;;11.65;100.00;102132.50;5023934;28;20028;-76
2022/11/10 10:02:08;;;;;;;21.33;6.03;;;;;;;11.68;100.00;102118.59;5027253;28;20040;-76
2022/11/10 10:04:59;;;;;;;23.50;6.28;;;;;;;11.77;100.00;102126.84;5020706;28;20028;-76
2022/11/10 10:07:34;;;;;;;17.33;4.82;;;;;;;11.80;100.00;102126.13;5038796;28;20072;-75
2022/11/10 10:10:43;;;;;;;15.27;5.40;;;;;;;11.95;100.00;102127.38;5037996;28;20024;-76
2022/11/10 10:13:30;;;;;;;15.90;5.63;;;;;;;11.97;100.00;102125.88;5026118;28;20100;-75
2022/11/10 10:16:14;;;;;;;17.90;5.85;;;;;;;11.99;100.00;102146.00;5038230;28;20033;-77
2022/11/10 10:18:50;;;;;;;23.00;5.95;;;;;;;11.99;100.00;102146.00;5043027;28;20043;-77
2022/11/10 10:21:23;;;;;;;13.00;5.55;;;;;;;12.10;100.00;102153.88;5037843;28;20119;-77
2022/11/10 10:23:51;;;;;;;19.02;5.68;;;;;;;12.10;100.00;102162.28;5014561;28;20051;-76
2022/11/10 10:26:21;;;;;;;21.35;5.05;;;;;;;12.13;100.00;102161.59;5027033;28;20040;-77
2022/11/10 10:28:49;;;;;;;21.63;5.93;;;;;;;12.02;100.00;102172.50;5034807;28;20507;-76
2022/11/10 10:31:21;;;;;;;21.90;5.65;;;;;;;12.06;100.00;102161.38;5035827;28;20385;-76
2022/11/10 10:33:47;;;;;;;17.07;5.50;;;;;;;12.03;100.00;102167.72;5040754;28;20045;-77
2022/11/10 10:36:18;;;;;;;17.00;5.72;;;;;;;12.00;100.00;102181.28;5028690;28;20037;-77
2022/11/10 10:38:46;;;;;;;20.25;6.13;;;;;;;12.03;100.00;102168.50;5014940;28;20033;-78
2022/11/10 10:41:21;;;;;;;17.65;5.20;;;;;;;12.14;100.00;102163.22;5037297;28;20031;-77
2022/11/10 10:43:49;;;;;;;13.75;4.63;;;;;;;12.26;100.00;102159.53;5015468;28;20029;-78
2022/11/10 10:46:15;;;;;;;18.08;6.72;;;;;;;12.33;100.00;102165.34;5024378;28;20040;-77
2022/11/10 10:48:40;;;;;;;20.30;6.82;;;;;;;12.37;100.00;102178.31;5035291;28;20056;-77
2022/11/10 10:51:06;;;;;;;15.00;4.63;;;;;;;12.43;100.00;102167.63;5040330;28;20442;-76
2022/11/10 10:53:31;;;;;;;16.42;4.95;;;;;;;12.48;100.00;102183.41;5037374;28;20134;-77
2022/11/10 10:56:00;;;;;;;21.55;5.30;;;;;;;12.48;100.00;102170.19;5015486;28;20025;-77
2022/11/10 10:58:48;;;;;;;14.52;4.70;;;;;;;12.65;100.00;102171.84;5019617;28;20043;-76
2022/11/10 11:01:13;;;;;;;18.88;5.07;;;;;;;12.75;100.00;102171.28;5036237;28;22024;-78
2022/11/10 11:03:42;;;;;;;21.75;5.38;;;;;;;12.81;100.00;102181.09;5020253;28;20032;-78
2022/11/10 11:06:13;;;;;;;24.92;4.43;;;;;;;12.83;100.00;102180.72;5012508;28;20024;-79
2022/11/10 11:08:42;;;;;;;21.60;4.45;;;;;;;12.90;100.00;102177.28;5015880;28;20442;-76
2022/11/10 11:11:09;;;;;;;17.90;4.38;;;;;;;13.00;100.00;102188.00;5017046;28;20059;-79
2022/11/10 11:13:35;;;;;;;19.38;4.20;;;;;;;12.98;100.00;102190.34;5014543;28;20041;-77
2022/11/10 11:16:06;;;;;;;20.85;4.13;;;;;;;12.99;100.00;102194.81;5034999;28;20090;-78
2022/11/10 11:18:32;;;;;;;10.98;3.58;;;;;;;12.99;100.00;102189.19;5018032;28;20039;-78
2022/11/10 11:21:11;;;;;;;19.75;4.60;;;;;;;13.04;100.00;102188.91;5030021;28;20083;-78
2022/11/10 11:23:39;;;;;;;13.80;3.90;;;;;;;13.28;100.00;102189.88;5010054;28;20067;-78
2022/11/10 11:26:16;;;;;;;16.63;3.28;;;;;;;13.31;100.00;102195.63;5026811;28;20035;-79
2022/11/10 11:29:01;;;;;;;9.55;3.35;;;;;;;13.41;99.71;102197.06;5033912;28;20503;-78
2022/11/10 11:32:07;;;;;;;28.25;3.60;;;;;;;13.37;100.00;102224.28;5033568;28;20671;-78
2022/11/10 11:34:54;;;;;;;14.57;2.85;;;;;;;13.42;99.91;102226.81;5040070;28;20029;-77
2022/11/10 11:37:33;;;;;;;17.83;3.92;;;;;;;13.42;99.75;102226.81;5030642;28;20476;-77
2022/11/10 11:40:04;;;;;;;13.95;2.72;;;;;;;13.36;99.44;102229.06;5016555;28;20032;-77
2022/11/10 11:42:44;;;;;;;14.50;3.85;;;;;;;13.48;99.38;102227.34;5039856;28;20117;-78
2022/11/10 11:45:23;;;;;;;13.95;3.85;;;;;;;13.41;99.82;102222.38;5038843;28;20168;-77
2022/11/10 11:47:51;;;;;;;10.77;3.00;;;;;;;13.45;99.61;102225.25;5033096;28;20427;-77
2022/11/10 11:50:31;;;;;;;16.67;3.72;;;;;;;13.42;99.40;102243.69;5045308;28;20516;-77
2022/11/10 11:53:11;;;;;;;18.73;3.08;;;;;;;13.47;98.24;102234.16;5035213;28;20111;-76
2022/11/10 11:55:59;;;;;;;17.65;4.63;;;;;;;13.38;99.12;102245.59;5039387;28;20025;-77
2022/11/10 11:59:04;;;;;;;19.80;4.38;;;;;;;13.45;99.10;102242.97;5029291;28;21598;-76
2022/11/10 12:01:51;;;;;;;17.08;4.25;;;;;;;13.45;99.48;102242.97;5030459;28;20048;-77
2022/11/10 12:04:44;;;;;;;14.80;3.20;;;;;;;13.47;98.48;102229.38;5036719;28;20119;-77
2022/11/10 12:07:44;;;;;;;20.65;4.25;;;;;;;13.59;98.22;102237.66;5022908;28;20025;-75
2022/11/10 12:10:20;;;;;;;16.40;3.67;;;;;;;13.57;98.67;102240.03;4977914;28;20529;-77
2022/11/10 12:13:20;;;;;;;22.05;3.30;;;;;;;13.63;98.22;102244.19;5043916;28;20131;-77
2022/11/10 12:15:48;;;;;;;16.77;3.58;;;;;;;13.60;98.49;102239.31;5039454;28;20049;-77
2022/11/10 12:18:28;;;;;;;14.27;4.20;;;;;;;13.68;97.10;102245.94;5019448;28;20029;-76
2022/11/10 12:21:02;;;;;;;8.57;2.92;;;;;;;13.58;98.09;102246.50;5044438;28;20068;-77
2022/11/10 12:23:49;;;;;;;13.93;2.67;;;;;;;13.58;97.85;102249.31;5038976;28;20039;-76
2022/11/10 12:26:45;;;;;;;21.75;3.40;;;;;;;13.58;97.59;102240.88;5040943;28;20037;-77
2022/11/10 12:29:29;;;;;;;15.15;3.20;;;;;;;13.49;98.74;102243.88;5010103;28;21196;-77
2022/11/10 12:32:02;;;;;;;14.85;4.30;;;;;;;13.50;98.95;102241.88;5023386;28;20468;-77
2022/11/10 12:34:39;;;;;;;10.88;3.60;;;;;;;13.58;97.94;102247.31;5037357;28;20036;-77
2022/11/10 12:37:06;;;;;;;18.50;3.47;;;;;;;13.53;99.29;102261.63;5044050;28;20017;-77
2022/11/10 12:39:52;;;;;;;28.17;4.53;;;;;;;13.52;99.48;102260.00;5036793;28;20520;-76
2022/11/10 12:42:21;;;;;;;10.25;3.80;;;;;;;13.56;98.86;102254.47;5043165;28;20405;-79
2022/11/10 12:45:01;;;;;;;12.73;3.95;;;;;;;13.60;98.92;102273.06;5042444;28;20033;-79
2022/11/10 12:47:41;;;;;;;13.02;3.53;;;;;;;13.54;99.49;102268.09;5035866;28;20025;-78
2022/11/10 12:50:19;;;;;;;14.05;3.38;;;;;;;13.52;99.52;102265.63;5025854;28;20026;-79
2022/11/10 12:53:00;;;;;;;15.73;3.85;;;;;;;13.50;99.37;102256.75;5036875;28;20060;-79
2022/11/10 12:55:41;;;;;;;22.35;4.07;;;;;;;13.48;99.68;102263.94;5043296;28;20049;-76
2022/11/10 12:58:11;;;;;;;13.70;3.10;;;;;;;13.54;99.35;102262.47;5042234;28;20037;-76
2022/11/10 13:00:53;;;;;;;19.38;4.25;;;;;;;13.55;99.95;102259.28;5041312;28;20059;-78
2022/11/10 13:03:53;;;;;;;16.30;4.28;;;;;;;13.65;98.78;102257.09;5039449;28;20079;-76
2022/11/10 13:06:29;;;;;;;14.32;3.97;;;;;;;13.74;98.54;102255.69;5039953;28;20045;-79
2022/11/10 13:08:54;;;;;;;10.85;3.83;;;;;;;13.69;97.53;102249.56;5037915;28;20487;-78
2022/11/10 13:11:24;;;;;;;20.05;3.67;;;;;;;13.73;98.19;102244.84;5037897;28;20033;-76
2022/11/10 13:13:58;;;;;;;18.02;2.65;;;;;;;13.80;97.10;102242.16;5036227;28;20045;-78
2022/11/10 13:16:46;;;;;;;13.73;3.30;;;;;;;13.98;97.73;102259.47;5020931;28;20021;-78
2022/11/10 13:19:37;;;;;;;14.13;3.33;;;;;;;13.81;98.38;102249.44;5026083;28;20403;-77
2022/11/10 13:22:11;;;;;;;15.63;3.53;;;;;;;13.91;97.01;102248.84;5030942;28;20037;-77
2022/11/10 13:24:39;;;;;;;14.98;3.00;;;;;;;13.89;97.00;102233.53;5010654;28;20024;-77
2022/11/10 13:27:31;;;;;;;15.40;3.08;;;;;;;13.92;96.28;102246.88;5029439;28;20033;-77
2022/11/10 13:29:58;;;;;;;16.90;3.70;;;;;;;13.93;96.48;102254.13;5039154;28;20534;-77
2022/11/10 13:32:31;;;;;;;13.43;3.50;;;;;;;13.79;96.64;102252.63;5032857;28;20043;-77
2022/11/10 13:35:28;;;;;;;9.73;2.92;;;;;;;13.79;96.95;102251.81;5036283;28;20520;-77
2022/11/10 13:37:53;;;;;;;14.57;3.05;;;;;;;13.70;96.90;102259.63;5037080;28;20067;-76
2022/11/10 13:40:22;;;;;;;16.05;3.95;;;;;;;13.64;97.43;102256.28;5017840;28;20423;-77
2022/11/10 13:42:56;;;;;;;10.93;3.28;;;;;;;13.59;96.93;102257.38;5022121;28;20036;-77
2022/11/10 13:45:28;;;;;;;16.13;3.60;;;;;;;13.56;97.35;102269.34;5013405;28;20029;-76
2022/11/10 13:48:05;;;;;;;20.42;4.72;;;;;;;13.49;97.88;102266.38;5032506;28;20037;-77
2022/11/10 13:50:39;;;;;;;15.20;4.40;;;;;;;13.52;97.69;102264.84;5027879;28;20044;-77
2022/11/10 13:53:26;;;;;;;11.00;3.05;;;;;;;13.45;98.93;102265.47;5033698;28;20551;-77
2022/11/10 13:56:01;;;;;;;16.95;3.70;;;;;;;13.41;98.03;102273.00;5014436;28;20035;-77
2022/11/10 13:58:30;;;;;;;12.18;3.90;;;;;;;13.38;98.10;102270.91;5035114;28;20510;-77
2022/11/10 14:01:13;;;;;;;10.45;3.78;;;;;;;13.38;97.55;102265.28;5033906;28;20033;-76
2022/11/10 14:03:44;;;;;;;15.35;4.32;;;;;;;13.34;99.40;102267.19;5031154;28;20120;-76
2022/11/10 14:06:16;;;;;;;15.27;4.32;;;;;;;13.37;98.93;102263.66;5035574;28;20472;-76
2022/11/10 14:08:48;;;;;;;15.50;3.83;;;;;;;13.34;99.13;102276.44;5036938;28;20488;-77
2022/11/10 14:11:21;;;;;;;15.10;3.90;;;;;;;13.35;98.67;102272.47;5039440;28;20460;-76
2022/11/10 14:13:53;;;;;;;19.23;4.47;;;;;;;13.44;98.99;102286.34;5037438;28;20428;-76
2022/11/10 14:16:23;;;;;;;12.25;3.63;;;;;;;13.36;99.43;102290.13;5018492;28;20475;-75
2022/11/10 14:18:57;;;;;;;15.73;3.83;;;;;;;13.35;98.25;102294.16;5030264;28;20543;-76
2022/11/10 14:21:31;;;;;;;13.73;4.03;;;;;;;13.34;97.73;102292.50;5032512;28;20025;-76
2022/11/10 14:24:15;;;;;;;18.10;3.90;;;;;;;13.35;97.59;102302.59;5040788;28;20043;-75
2022/11/10 14:26:47;;;;;;;18.67;4.50;;;;;;;13.32;97.81;102303.28;5040386;28;20057;-76
2022/11/10 14:29:34;;;;;;;10.40;3.77;;;;;;;13.25;99.22;102297.47;5017163;28;20025;-76
2022/11/10 14:32:03;;;;;;;12.00;3.55;;;;;;;13.27;99.12;102317.59;5035128;28;20033;-77
2022/11/10 14:34:32;;;;;;;8.93;3.53;;;;;;;13.29;97.47;102301.22;5041229;28;20111;-76
2022/11/10 14:37:00;;;;;;;13.50;3.60;;;;;;;13.24;98.48;102313.53;5039775;28;20029;-75
2022/11/10 14:39:29;;;;;;;14.98;5.30;;;;;;;13.21;98.72;102305.78;5045124;28;20575;-76
2022/11/10 14:41:57;;;;;;;26.15;5.93;;;;;;;13.28;97.47;102317.25;5040997;28;20028;-76
2022/11/10 14:44:26;;;;;;;24.23;5.63;;;;;;;13.26;98.17;102325.22;5037172;28;20111;-76
2022/11/10 14:46:52;;;;;;;17.58;4.57;;;;;;;13.17;99.29;102331.00;5037205;28;20083;-75
2022/11/10 14:49:22;;;;;;;15.68;4.30;;;;;;;13.23;98.21;102340.81;5037042;28;20025;-75
2022/11/10 14:51:49;;;;;;;15.20;4.07;;;;;;;13.17;99.25;102339.44;5033678;28;20022;-76
2022/11/10 14:54:21;;;;;;;15.50;4.72;;;;;;;13.15;98.42;102347.41;5037112;28;20530;-76
2022/11/10 14:56:47;;;;;;;;;;;;;;;13.17;97.49;102345.06;5026428;28;20512;-76
2022/11/10 14:59:14;;;;;;;17.33;4.22;;;;;;;13.28;97.77;102338.91;5035858;28;20212;-75
2022/11/10 15:01:47;;;;;;;15.50;3.88;;;;;;;13.17;97.41;102345.06;5035483;28;20055;-75
2022/11/10 15:04:13;;;;;;;10.88;3.00;;;;;;;13.15;97.67;102338.97;5031450;28;20439;-76
2022/11/10 15:06:39;;;;;;;10.95;3.60;;;;;;;13.15;97.68;102341.78;5032200;28;20389;-76
2022/11/10 15:09:31;;;;;;;12.02;4.85;;;;;;;13.13;97.38;102332.88;5033717;28;20035;-77
2022/11/10 15:11:59;;;;;;;11.35;2.92;;;;;;;13.14;97.43;102334.53;5029365;28;20404;-76
2022/11/10 15:14:45;;;;;;;10.30;2.80;;;;;;;13.09;97.64;102333.97;5035409;28;20106;-77
2022/11/10 15:17:20;;;;;;;14.75;3.67;;;;;;;13.11;97.01;102340.06;5031485;28;20029;-77
2022/11/10 15:19:45;;;;;;;13.60;3.30;;;;;;;13.11;97.73;102340.91;5032832;28;20132;-76
2022/11/10 15:22:15;;;;;;;10.15;2.92;;;;;;;13.13;96.64;102337.72;5014060;28;20116;-77
2022/11/10 15:24:42;;;;;;;14.23;3.45;;;;;;;13.05;97.45;102350.78;5027142;28;20082;-76
2022/11/10 15:27:26;;;;;;;11.35;2.80;;;;;;;13.05;97.23;102358.34;5030879;28;20088;-77
2022/11/10 15:29:53;;;;;;;12.98;2.95;;;;;;;13.09;97.25;102370.53;5031079;28;20029;-77
2022/11/10 15:32:20;;;;;;;11.32;3.83;;;;;;;13.07;97.49;102370.91;5035795;28;20175;-77
2022/11/10 15:34:48;;;;;;;10.82;3.00;;;;;;;13.02;97.49;102360.72;5026722;28;20036;-76
2022/11/10 15:37:25;;;;;;;14.65;5.68;;;;;;;13.14;98.25;102362.66;5031648;28;20036;-77
2022/11/10 15:39:52;;;;;;;17.38;3.50;;;;;;;13.13;96.57;102365.81;5030770;28;20032;-77
2022/11/10 15:42:23;;;;;;;10.25;3.90;;;;;;;13.11;96.19;102365.34;5027690;28;20123;-76
2022/11/10 15:44:49;;;;;;;12.70;2.73;;;;;;;13.08;96.53;102364.09;5036002;28;20025;-76
2022/11/10 15:47:16;;;;;;;19.30;3.35;;;;;;;13.03;96.96;102353.13;5031513;28;20293;-77
2022/11/10 15:49:42;;;;;;;10.95;2.88;;;;;;;13.00;96.95;102354.63;5034130;28;20496;-77
2022/11/10 15:52:15;;;;;;;14.57;2.95;;;;;;;13.03;96.56;102364.38;5035288;28;20080;-77
2022/11/10 15:54:41;;;;;;;10.77;3.28;;;;;;;12.98;96.93;102359.78;5018892;28;21094;-77
2022/11/10 15:57:14;;;;;;;15.60;2.80;;;;;;;13.14;96.80;102373.91;5031259;28;20046;-77
2022/11/10 15:59:39;;;;;;;;;;;;;;;13.10;96.01;102374.97;5034811;28;20029;-77
2022/11/10 16:02:24;;;;;;;16.88;3.92;;;;;;;13.03;96.99;102375.59;5033971;28;19978;-77
2022/11/10 16:04:53;;;;;;;13.10;3.20;;;;;;;13.07;95.99;102378.50;5031425;28;20021;-77
2022/11/10 16:07:18;;;;;;;12.85;3.08;;;;;;;13.04;96.51;102371.59;5032467;28;20033;-77
2022/11/10 16:09:43;;;;;;;12.35;3.78;;;;;;;13.00;96.19;102373.50;5031433;28;20067;-78
2022/11/10 16:12:21;;;;;;;12.98;3.22;;;;;;;13.00;95.97;102362.25;5030583;28;20193;-78
2022/11/10 16:14:48;;;;;;;11.07;3.20;;;;;;;13.04;95.99;102362.38;5031866;28;20100;-78
2022/11/10 16:17:14;;;;;;;15.65;4.07;;;;;;;12.97;95.82;102368.59;5031059;28;20471;-77
2022/11/10 16:19:41;;;;;;;17.88;6.20;;;;;;;12.98;96.62;102370.22;5033644;28;20057;-78
2022/11/10 16:22:09;;;;;;;10.35;2.70;;;;;;;12.98;96.35;102375.84;5034343;28;20214;-78
2022/11/10 16:24:34;;;;;;;12.52;3.33;;;;;;;12.95;96.09;102387.81;5036589;28;20126;-77
2022/11/10 16:26:59;;;;;;;12.75;3.75;;;;;;;13.01;96.56;102381.56;5028122;28;22038;-77
2022/11/10 16:29:25;;;;;;;13.20;2.90;;;;;;;12.96;96.42;102379.00;5035090;28;20032;-76
2022/11/10 16:31:50;;;;;;;11.80;4.43;;;;;;;12.91;95.40;102381.28;5030382;28;20033;-77
2022/11/10 16:34:15;;;;;;;12.85;2.60;;;;;;;12.85;95.43;102397.56;5029083;28;20083;-77
2022/11/10 16:36:44;;;;;;;13.45;2.90;;;;;;;12.80;96.52;102404.25;5031167;28;20055;-77
2022/11/10 16:39:14;;;;;;;9.48;3.35;;;;;;;12.78;96.84;102415.03;5041263;28;20032;-77
2022/11/10 16:41:40;;;;;;;11.02;3.60;;;;;;;12.78;96.46;102433.91;5038926;28;20028;-77
2022/11/10 16:44:11;;;;;;;17.73;5.75;;;;;;;12.76;96.94;102425.00;5032866;28;20074;-77
2022/11/10 16:46:38;;;;;;;14.85;3.45;;;;;;;12.73;95.74;102431.31;5038875;28;20373;-77
2022/11/10 16:49:06;;;;;;;12.63;3.90;;;;;;;12.72;96.50;102436.13;5041276;28;20041;-76
2022/11/10 16:51:41;;;;;;;11.20;3.75;;;;;;;12.66;96.28;102429.09;5039494;28;20439;-77
2022/11/10 16:54:09;;;;;;;14.23;2.95;;;;;;;12.68;95.89;102438.00;5037086;28;20035;-77
2022/11/10 16:56:34;;;;;;;13.63;6.07;;;;;;;12.67;97.07;102427.94;5033551;28;20536;-77
2022/11/10 16:58:59;;;;;;;13.88;3.28;;;;;;;12.67;96.82;102427.94;5036789;28;20025;-76
2022/11/10 17:01:28;;;;;;;11.35;3.38;;;;;;;12.68;96.57;102440.00;5039210;28;20035;-75
2022/11/10 17:04:00;;;;;;;10.60;3.40;;;;;;;12.63;97.01;102429.00;5035692;28;20029;-77
2022/11/10 17:06:27;;;;;;;9.25;2.80;;;;;;;12.59;95.52;102432.53;5036863;28;21817;-76
2022/11/10 17:08:58;;;;;;;8.93;2.97;;;;;;;12.61;97.07;102435.78;5040916;28;20257;-76
2022/11/10 17:11:23;;;;;;;15.95;3.45;;;;;;;12.61;96.82;102429.38;5036088;28;20041;-76
2022/11/10 17:13:49;;;;;;;10.65;3.38;;;;;;;12.59;96.58;102442.94;5035206;28;20045;-76
2022/11/10 17:16:31;;;;;;;9.63;3.35;;;;;;;12.55;96.01;102440.00;5035151;28;20429;-76
2022/11/10 17:18:59;;;;;;;5.53;3.30;;;;;;;12.55;97.22;102437.22;5023502;28;20040;-76
2022/11/10 17:21:25;;;;;;;8.15;2.40;;;;;;;12.53;96.65;102433.13;5017730;28;20250;-76
2022/11/10 17:23:51;;;;;;;11.35;2.72;;;;;;;12.50;96.44;102431.00;5026896;28;20033;-76
2022/11/10 17:26:19;;;;;;;8.27;2.75;;;;;;;12.51;96.66;102444.69;5013856;28;20135;-76
2022/11/10 17:28:44;;;;;;;14.05;4.35;;;;;;;12.48;96.66;102448.22;5035728;28;20420;-76
2022/11/10 17:31:12;;;;;;;11.98;3.10;;;;;;;12.49;97.06;102460.28;5037233;28;20139;-76
2022/11/10 17:33:37;;;;;;;9.65;3.22;;;;;;;12.45;97.08;102459.34;5036911;28;20479;-76
2022/11/10 17:36:04;;;;;;;10.45;3.28;;;;;;;12.44;96.25;102469.75;5035957;28;20029;-76